createdAt,value
2022-10-04T00:02:29.258Z,102302.53
2022-10-04T00:05:03.938Z,102292.00
2022-10-04T00:07:35.910Z,102299.13
2022-10-04T00:10:08.740Z,102301.66
2022-10-04T00:12:41.009Z,102300.25
2022-10-04T00:15:20.825Z,102296.41
2022-10-04T00:18:02.767Z,102294.56
2022-10-04T00:21:02.377Z,102301.28
2022-10-04T00:23:43.342Z,102292.88
2022-10-04T00:26:35.808Z,102292.66
2022-10-04T00:29:34.785Z,102285.22
2022-10-04T00:32:28.817Z,102289.03
2022-10-04T00:34:57.689Z,102278.56
2022-10-04T00:37:27.184Z,102272.78
2022-10-04T00:40:04.400Z,102270.03
2022-10-04T00:42:49.100Z,102271.56
2022-10-04T00:45:30.974Z,102265.31
2022-10-04T00:48:31.904Z,102255.50
2022-10-04T00:51:02.022Z,102255.22
2022-10-04T00:53:57.261Z,102258.81
2022-10-04T00:56:33.844Z,102263.22
2022-10-04T00:59:31.081Z,102265.34
2022-10-04T01:02:03.653Z,102270.41
2022-10-04T01:04:46.315Z,102267.47
2022-10-04T01:07:17.445Z,102255.97
2022-10-04T01:09:49.524Z,102250.75
2022-10-04T01:12:32.989Z,102236.94
2022-10-04T01:15:07.478Z,102238.44
2022-10-04T01:17:35.438Z,102241.97
2022-10-04T01:20:04.135Z,102243.06
2022-10-04T01:22:39.013Z,102236.03
2022-10-04T01:25:07.374Z,102236.84
2022-10-04T01:27:38.566Z,102223.66
2022-10-04T01:30:09.542Z,102219.06
2022-10-04T01:32:40.360Z,102221.59
2022-10-04T01:35:10.518Z,102213.34
2022-10-04T01:37:40.426Z,102192.00
2022-10-04T01:40:10.510Z,102204.78
2022-10-04T01:42:44.631Z,102201.28
2022-10-04T01:45:19.003Z,102206.44
2022-10-04T01:47:52.750Z,102206.22
2022-10-04T01:50:26.232Z,102216.25
2022-10-04T01:53:01.298Z,102214.94
2022-10-04T01:55:31.715Z,102204.97
2022-10-04T01:58:05.224Z,102195.13
2022-10-04T02:00:44.074Z,102188.47
2022-10-04T02:03:17.884Z,102189.22
2022-10-04T02:05:51.861Z,102175.63
2022-10-04T02:08:26.969Z,102170.28
2022-10-04T02:10:56.001Z,102165.69
2022-10-04T02:13:29.866Z,102161.06
2022-10-04T02:15:59.446Z,102159.19
2022-10-04T02:18:28.740Z,102151.44
2022-10-04T02:20:57.420Z,102157.56
2022-10-04T02:23:28.103Z,102152.19
2022-10-04T02:25:56.192Z,102153.81
2022-10-04T02:28:24.121Z,102141.09
2022-10-04T02:31:11.542Z,102139.19
2022-10-04T02:33:43.806Z,102126.06
2022-10-04T02:36:13.179Z,102127.47
2022-10-04T02:38:48.969Z,102122.34
2022-10-04T02:41:25.905Z,102124.63
2022-10-04T02:43:57.819Z,102117.38
2022-10-04T02:46:29.467Z,102121.66
2022-10-04T02:48:59.407Z,102115.44
2022-10-04T02:51:33.336Z,102111.06
2022-10-04T02:54:15.608Z,102112.94
2022-10-04T02:56:44.278Z,102111.81
2022-10-04T02:59:17.388Z,102111.66
2022-10-04T03:01:53.644Z,102110.22
2022-10-04T03:04:24.316Z,102107.75
2022-10-04T03:06:53.721Z,102104.34
2022-10-04T03:09:29.510Z,102095.38
2022-10-04T03:11:58.203Z,102100.06
2022-10-04T03:14:28.257Z,102091.97
2022-10-04T03:17:00.590Z,102089.75
2022-10-04T03:19:30.902Z,102084.97
2022-10-04T03:22:02.455Z,102084.38
2022-10-04T03:24:34.501Z,102070.97
2022-10-04T03:27:06.601Z,102074.78
2022-10-04T03:29:35.062Z,102069.78
2022-10-04T03:32:05.286Z,102071.13
2022-10-04T03:34:37.687Z,102070.22
2022-10-04T03:37:09.043Z,102071.66
2022-10-04T03:39:41.607Z,102063.00
2022-10-04T03:42:14.389Z,102065.16
2022-10-04T03:44:44.630Z,102067.53
2022-10-04T03:47:15.887Z,102066.31
2022-10-04T03:49:50.001Z,102075.91
2022-10-04T03:52:23.944Z,102061.38
2022-10-04T03:54:55.723Z,102056.44
2022-10-04T03:57:23.976Z,102069.06
2022-10-04T03:59:52.739Z,102061.03
2022-10-04T04:02:35.465Z,102056.78
2022-10-04T04:05:11.323Z,102063.06
2022-10-04T04:07:44.702Z,102059.22
2022-10-04T04:10:22.743Z,102060.78
2022-10-04T04:12:58.080Z,102054.88
2022-10-04T04:15:30.716Z,102050.34
2022-10-04T04:18:02.402Z,102054.50
2022-10-04T04:20:33.786Z,102046.56
2022-10-04T04:23:05.083Z,102050.47
2022-10-04T04:25:38.147Z,102042.28
2022-10-04T04:28:15.997Z,102037.16
2022-10-04T04:30:47.474Z,102038.72
2022-10-04T04:33:25.200Z,102029.06
2022-10-04T04:35:56.552Z,102037.94
2022-10-04T04:38:26.261Z,102039.47
2022-10-04T04:40:55.765Z,102039.56
2022-10-04T04:43:27.523Z,102044.66
2022-10-04T04:46:22.132Z,102036.56
2022-10-04T04:48:48.231Z,102033.41
2022-10-04T04:51:21.843Z,102030.94
2022-10-04T04:53:51.026Z,102034.44
2022-10-04T04:56:23.288Z,102027.81
2022-10-04T04:58:53.908Z,102030.25
2022-10-04T05:01:26.668Z,102027.63
2022-10-04T05:04:05.562Z,102028.44
2022-10-04T05:06:35.728Z,102031.09
2022-10-04T05:09:04.412Z,102025.50
2022-10-04T05:11:35.900Z,102031.06
2022-10-04T05:14:07.620Z,102031.00
2022-10-04T05:16:41.446Z,102032.00
2022-10-04T05:19:15.193Z,102036.66
2022-10-04T05:21:46.520Z,102031.69
2022-10-04T05:24:22.518Z,102042.25
2022-10-04T05:26:53.467Z,102042.94
2022-10-04T05:29:23.413Z,102042.94
2022-10-04T05:31:59.288Z,102039.09
2022-10-04T05:34:31.632Z,102031.81
2022-10-04T05:37:15.279Z,102038.34
2022-10-04T05:39:48.127Z,102048.41
2022-10-04T05:42:23.508Z,102039.81
2022-10-04T05:44:53.061Z,102046.72
2022-10-04T05:47:24.146Z,102045.63
2022-10-04T05:49:55.471Z,102043.72
2022-10-04T05:52:30.472Z,102046.56
2022-10-04T05:55:22.606Z,102042.94
2022-10-04T05:58:06.044Z,102046.78
2022-10-04T06:00:43.858Z,102050.13
2022-10-04T06:03:27.596Z,102043.94
2022-10-04T06:05:57.369Z,102048.63
2022-10-04T06:08:41.956Z,102052.41
2022-10-04T06:11:19.720Z,102051.81
2022-10-04T06:14:36.350Z,102046.72
2022-10-04T06:17:25.913Z,102056.91
2022-10-04T06:20:47.619Z,102054.06
2022-10-04T06:23:18.535Z,102047.63
2022-10-04T06:25:51.689Z,102047.47
2022-10-04T06:28:32.387Z,102049.28
2022-10-04T06:31:28.846Z,102047.25
2022-10-04T06:34:11.149Z,102036.97
2022-10-04T06:37:10.775Z,102034.41
2022-10-04T06:39:51.038Z,102036.72
2022-10-04T06:42:49.249Z,102031.81
2022-10-04T06:45:41.124Z,102027.72
2022-10-04T06:48:36.492Z,102029.66
2022-10-04T06:51:16.256Z,102021.56
2022-10-04T06:53:57.389Z,102017.19
2022-10-04T06:56:42.858Z,102017.00
2022-10-04T06:59:28.620Z,102003.56
2022-10-04T07:01:59.951Z,102003.41
2022-10-04T07:05:03.083Z,102001.44
2022-10-04T07:07:35.684Z,102001.81
2022-10-04T07:10:22.814Z,101995.28
2022-10-04T07:12:56.683Z,102011.63
2022-10-04T07:15:29.360Z,102000.38
2022-10-04T07:18:04.770Z,102008.47
2022-10-04T07:20:36.723Z,101998.13
2022-10-04T07:23:09.536Z,102009.22
2022-10-04T07:25:46.204Z,102004.03
2022-10-04T07:28:35.879Z,102004.88
2022-10-04T07:31:06.347Z,102010.66
2022-10-04T07:33:43.135Z,102015.28
2022-10-04T07:36:17.657Z,102016.13
2022-10-04T07:38:54.422Z,102012.06
2022-10-04T07:41:27.664Z,102021.00
2022-10-04T07:44:00.981Z,102020.81
2022-10-04T07:46:41.088Z,102021.59
2022-10-04T07:49:15.129Z,102023.13
2022-10-04T07:52:06.433Z,102016.69
2022-10-04T07:54:40.694Z,102024.69
2022-10-04T07:57:17.702Z,102021.50
2022-10-04T07:59:54.359Z,102027.34
2022-10-04T08:02:36.582Z,102033.16
2022-10-04T08:05:20.744Z,102041.16
2022-10-04T08:08:17.434Z,102034.94
2022-10-04T08:10:57.586Z,102020.25
2022-10-04T08:13:35.046Z,102020.81
2022-10-04T08:16:13.719Z,102020.25
2022-10-04T08:18:53.148Z,102015.41
2022-10-04T08:21:31.649Z,102029.16
2022-10-04T08:24:13.639Z,102020.78
2022-10-04T08:26:54.234Z,102018.94
2022-10-04T08:29:51.261Z,102022.81
2022-10-04T08:32:31.263Z,102013.16
2022-10-04T08:35:16.893Z,102010.06
2022-10-04T08:37:59.222Z,102011.81
2022-10-04T08:41:13.054Z,102012.75
2022-10-04T08:44:15.587Z,102017.63
2022-10-04T08:47:25.363Z,102018.75
2022-10-04T08:50:24.285Z,102003.25
2022-10-04T08:53:11.022Z,101999.38
2022-10-04T08:56:14.795Z,102001.91
2022-10-04T08:59:33.044Z,102003.84
2022-10-04T09:02:36.297Z,102013.75
2022-10-04T09:05:30.497Z,102014.91
2022-10-04T09:08:24.216Z,102001.59
2022-10-04T09:11:11.189Z,102009.44
2022-10-04T09:13:51.671Z,102015.31
2022-10-04T09:16:26.117Z,102013.94
2022-10-04T09:19:21.643Z,102000.34
2022-10-04T09:22:18.660Z,102009.41
2022-10-04T09:25:24.012Z,102009.91
2022-10-04T09:28:10.197Z,102008.94
2022-10-04T09:30:59.495Z,102012.28
2022-10-04T09:33:43.344Z,101995.19
2022-10-04T09:36:31.208Z,101998.16
2022-10-04T09:39:30.555Z,101996.00
2022-10-04T09:42:41.876Z,101999.22
2022-10-04T09:45:48.205Z,102000.25
2022-10-04T09:48:27.021Z,102002.66
2022-10-04T09:51:26.025Z,102002.22
2022-10-04T09:54:15.876Z,101997.25
2022-10-04T09:57:16.780Z,101995.19
2022-10-04T10:00:09.506Z,101999.09
2022-10-04T10:03:16.234Z,101986.72
2022-10-04T10:06:09.876Z,101977.38
2022-10-04T10:08:47.878Z,101991.00
2022-10-04T10:11:45.524Z,101986.25
2022-10-04T10:14:55.676Z,101985.59
2022-10-04T10:17:37.885Z,101974.41
2022-10-04T10:20:33.606Z,101979.16
2022-10-04T10:23:34.336Z,101984.56
2022-10-04T10:26:17.232Z,101987.25
2022-10-04T10:29:08.288Z,102000.97
2022-10-04T10:31:54.424Z,101996.75
2022-10-04T10:34:52.558Z,101998.78
2022-10-04T10:37:35.750Z,101988.41
2022-10-04T10:40:33.069Z,101996.00
2022-10-04T10:43:20.819Z,102001.00
2022-10-04T10:46:05.567Z,101993.72
2022-10-04T10:48:46.970Z,101979.31
2022-10-04T10:51:20.525Z,101977.50
2022-10-04T10:54:30.102Z,101983.88
2022-10-04T10:57:10.539Z,101966.97
2022-10-04T11:00:18.025Z,101967.22
2022-10-04T11:03:27.284Z,101967.97
2022-10-04T11:06:26.154Z,101965.72
2022-10-04T11:09:32.668Z,101958.56
2022-10-04T11:12:32.982Z,101954.53
2022-10-04T11:15:38.417Z,101956.19
2022-10-04T11:18:26.444Z,101954.69
2022-10-04T11:21:30.290Z,101957.69
2022-10-04T11:24:31.294Z,101952.09
2022-10-04T11:27:10.953Z,101947.28
2022-10-04T11:30:00.164Z,101939.22
2022-10-04T11:33:12.519Z,101937.44
2022-10-04T11:35:55.516Z,101928.31
2022-10-04T11:38:47.989Z,101942.72
2022-10-04T11:41:21.458Z,101926.09
2022-10-04T11:44:15.916Z,101924.00
2022-10-04T11:46:54.083Z,101930.81
2022-10-04T11:49:44.082Z,101925.72
2022-10-04T11:52:52.985Z,101923.50
2022-10-04T11:55:58.433Z,101936.97
2022-10-04T11:58:35.375Z,101923.75
2022-10-04T12:01:20.290Z,101926.56
2022-10-04T12:04:18.559Z,101920.31
2022-10-04T12:07:06.216Z,101920.88
2022-10-04T12:09:43.034Z,101918.66
2022-10-04T12:12:40.487Z,101912.19
2022-10-04T12:15:30.234Z,101914.91
2022-10-04T12:18:36.366Z,101915.16
2022-10-04T12:21:23.437Z,101915.94
2022-10-04T12:24:04.158Z,101905.31
2022-10-04T12:26:52.684Z,101892.19
2022-10-04T12:30:04.637Z,101889.88
2022-10-04T12:32:40.369Z,101892.19
2022-10-04T12:35:24.009Z,101884.16
2022-10-04T12:38:17.985Z,101891.47
2022-10-04T12:40:52.526Z,101885.91
2022-10-04T12:43:30.838Z,101874.28
2022-10-04T12:46:15.313Z,101868.72
2022-10-04T12:49:06.350Z,101871.25
2022-10-04T12:51:49.585Z,101860.38
2022-10-04T12:54:33.450Z,101859.19
2022-10-04T12:57:16.089Z,101863.22
2022-10-04T12:59:52.768Z,101859.69
2022-10-04T13:02:48.884Z,101861.25
2022-10-04T13:05:23.627Z,101862.28
2022-10-04T13:08:12.330Z,101870.31
2022-10-04T13:10:48.729Z,101854.03
2022-10-04T13:13:56.132Z,101853.22
2022-10-04T13:19:33.334Z,101842.66
2022-10-04T13:22:54.833Z,101841.13
2022-10-04T13:25:30.668Z,101853.16
2022-10-04T13:28:05.253Z,101870.91
2022-10-04T13:30:38.745Z,101851.84
2022-10-04T13:33:26.857Z,101854.66
2022-10-04T13:36:01.460Z,101833.75
2022-10-04T13:39:09.372Z,101827.22
2022-10-04T13:41:52.748Z,101817.88
2022-10-04T13:44:41.516Z,101816.81
2022-10-04T13:47:32.950Z,101802.47
2022-10-04T13:50:23.937Z,101793.97
2022-10-04T13:53:20.413Z,101784.56
2022-10-04T13:56:12.406Z,101788.09
2022-10-04T13:58:48.270Z,101785.97
2022-10-04T14:01:52.696Z,101777.50
2022-10-04T14:04:43.253Z,101765.63
2022-10-04T14:07:37.602Z,101766.97
2022-10-04T14:10:38.459Z,101767.47
2022-10-04T14:13:42.963Z,101775.56
2022-10-04T14:16:35.565Z,101772.69
2022-10-04T14:19:39.660Z,101770.50
2022-10-04T14:22:37.040Z,101772.75
2022-10-04T14:25:46.813Z,101770.56
2022-10-04T14:28:58.844Z,101768.88
2022-10-04T14:31:52.772Z,101777.94
2022-10-04T14:34:55.058Z,101773.13
2022-10-04T14:37:47.361Z,101776.47
2022-10-04T14:40:42.507Z,101783.25
2022-10-04T14:43:46.574Z,101775.06
2022-10-04T14:46:23.510Z,101769.22
2022-10-04T14:49:01.758Z,101773.00
2022-10-04T14:51:43.315Z,101771.28
2022-10-04T14:54:29.074Z,101771.50
2022-10-04T14:57:02.529Z,101778.13
2022-10-04T14:59:55.061Z,101784.19
2022-10-04T15:03:07.399Z,101779.13
2022-10-04T15:06:03.148Z,101780.91
2022-10-04T15:09:09.864Z,101781.25
2022-10-04T15:12:25.558Z,101789.31
2022-10-04T15:15:01.944Z,101785.56
2022-10-04T15:17:36.422Z,101780.78
2022-10-04T15:20:16.948Z,101782.53
2022-10-04T15:22:50.621Z,101778.22
2022-10-04T15:25:38.347Z,101789.34
2022-10-04T15:28:18.654Z,101788.56
2022-10-04T15:30:55.709Z,101781.72
2022-10-04T15:33:34.060Z,101776.13
2022-10-04T15:36:39.574Z,101767.75
2022-10-04T15:39:29.948Z,101770.22
2022-10-04T15:42:08.940Z,101778.72
2022-10-04T15:45:02.170Z,101775.59
2022-10-04T15:47:37.074Z,101778.56
2022-10-04T15:50:23.499Z,101767.25
2022-10-04T15:53:18.828Z,101763.47
2022-10-04T15:56:05.781Z,101765.03
2022-10-04T15:58:53.195Z,101767.50
2022-10-04T16:01:54.812Z,101770.75
2022-10-04T16:04:42.852Z,101760.69
2022-10-04T16:07:39.807Z,101771.22
2022-10-04T16:10:18.021Z,101757.19
2022-10-04T16:13:14.115Z,101771.34
2022-10-04T16:15:48.042Z,101764.13
2022-10-04T16:18:41.817Z,101765.72
2022-10-04T16:21:26.413Z,101772.56
2022-10-04T16:24:29.129Z,101780.34
2022-10-04T16:27:44.314Z,101773.03
2022-10-04T16:30:27.228Z,101774.75
2022-10-04T16:33:36.225Z,101783.00
2022-10-04T16:36:10.290Z,101784.56
2022-10-04T16:39:07.559Z,101783.31
2022-10-04T16:41:44.101Z,101784.38
2022-10-04T16:44:29.943Z,101782.75
2022-10-04T16:47:01.921Z,101789.56
2022-10-04T16:49:41.223Z,101778.16
2022-10-04T16:52:40.079Z,101782.44
2022-10-04T16:55:26.162Z,101786.84
2022-10-04T16:58:38.553Z,101790.75
2022-10-04T17:01:42.451Z,101793.25
2022-10-04T17:04:32.370Z,101784.44
2022-10-04T17:07:14.427Z,101779.88
2022-10-04T17:09:49.175Z,101785.91
2022-10-04T17:12:20.045Z,101780.53
2022-10-04T17:15:08.569Z,101789.13
2022-10-04T17:17:46.702Z,101789.56
2022-10-04T17:20:26.425Z,101789.09
2022-10-04T17:23:09.340Z,101783.69
2022-10-04T17:25:43.775Z,101777.81
2022-10-04T17:28:27.316Z,101782.31
2022-10-04T17:31:09.720Z,101786.56
2022-10-04T17:33:46.758Z,101783.53
2022-10-04T17:36:23.382Z,101787.56
2022-10-04T17:39:03.902Z,101780.03
2022-10-04T17:41:50.494Z,101781.47
2022-10-04T17:44:37.165Z,101779.13
2022-10-04T17:47:14.531Z,101772.56
2022-10-04T17:50:19.238Z,101783.88
2022-10-04T17:53:08.044Z,101785.88
2022-10-04T17:55:48.610Z,101792.69
2022-10-04T17:58:20.928Z,101793.47
2022-10-04T18:00:58.975Z,101789.41
2022-10-04T18:03:37.208Z,101790.91
2022-10-04T18:06:17.076Z,101785.09
2022-10-04T18:08:52.303Z,101784.56
2022-10-04T18:11:29.442Z,101772.22
2022-10-04T18:14:03.513Z,101767.44
2022-10-04T18:16:32.852Z,101763.94
2022-10-04T18:19:24.256Z,101768.78
2022-10-04T18:21:54.213Z,101778.38
2022-10-04T18:24:24.129Z,101785.84
2022-10-04T18:27:00.500Z,101780.59
2022-10-04T18:29:39.252Z,101788.66
2022-10-04T18:32:33.018Z,101780.31
2022-10-04T18:35:03.253Z,101780.31
2022-10-04T18:37:34.585Z,101781.25
2022-10-04T18:40:15.234Z,101780.78
2022-10-04T18:42:52.163Z,101770.31
2022-10-04T18:45:21.560Z,101772.03
2022-10-04T18:47:50.741Z,101784.09
2022-10-04T18:50:25.208Z,101771.75
2022-10-04T18:53:06.872Z,101771.75
2022-10-04T18:55:42.828Z,101771.00
2022-10-04T18:58:43.759Z,101769.75
2022-10-04T19:01:51.298Z,101768.25
2022-10-04T19:04:27.708Z,101768.41
2022-10-04T19:07:02.003Z,101766.59
2022-10-04T19:09:40.103Z,101752.06
2022-10-04T19:12:14.108Z,101740.19
2022-10-04T19:14:53.669Z,101732.09
2022-10-04T19:17:27.888Z,101732.09
2022-10-04T19:20:04.352Z,101725.81
2022-10-04T19:22:45.962Z,101723.81
2022-10-04T19:25:35.483Z,101717.00
2022-10-04T19:28:07.899Z,101709.22
2022-10-04T19:30:54.916Z,101708.94
2022-10-04T19:33:34.353Z,101711.88
2022-10-04T19:36:15.319Z,101707.78
2022-10-04T19:38:58.563Z,101705.44
2022-10-04T19:41:42.019Z,101711.63
2022-10-04T19:44:21.971Z,101723.22
2022-10-04T19:46:57.786Z,101715.13
2022-10-04T19:49:38.301Z,101710.69
2022-10-04T19:52:22.219Z,101709.63
2022-10-04T19:54:54.591Z,101707.34
2022-10-04T19:57:32.772Z,101716.38
2022-10-04T20:00:01.593Z,101715.63
2022-10-04T20:02:45.984Z,101723.59
2022-10-04T20:05:20.147Z,101718.56
2022-10-04T20:08:10.106Z,101719.59
2022-10-04T20:10:40.550Z,101717.63
2022-10-04T20:13:24.102Z,101719.31
2022-10-04T20:15:54.432Z,101729.13
2022-10-04T20:19:09.661Z,101726.53
2022-10-04T20:21:38.845Z,101721.53
2022-10-04T20:24:17.253Z,101723.25
2022-10-04T20:26:54.794Z,101737.94
2022-10-04T20:30:04.596Z,101721.03
2022-10-04T20:32:54.991Z,101726.72
2022-10-04T20:36:09.525Z,101720.00
2022-10-04T20:38:49.832Z,101709.44
2022-10-04T20:42:03.921Z,101703.94
2022-10-04T20:44:53.097Z,101709.94
2022-10-04T20:47:28.871Z,101717.44
2022-10-04T20:49:58.051Z,101725.69
2022-10-04T20:52:28.564Z,101720.69
2022-10-04T20:55:00.166Z,101731.97
2022-10-04T20:57:28.753Z,101733.94
2022-10-04T20:59:57.735Z,101738.72
2022-10-04T21:02:28.476Z,101737.94
2022-10-04T21:05:13.334Z,101739.47
2022-10-04T21:07:41.188Z,101747.19
2022-10-04T21:10:17.800Z,101743.38
2022-10-04T21:12:45.617Z,101744.00
2022-10-04T21:15:21.295Z,101747.56
2022-10-04T21:18:04.293Z,101749.53
2022-10-04T21:20:47.110Z,101737.16
2022-10-04T21:23:23.150Z,101745.94
2022-10-04T21:25:52.453Z,101754.19
2022-10-04T21:28:33.632Z,101755.41
2022-10-04T21:31:03.184Z,101756.44
2022-10-04T21:33:34.810Z,101751.91
2022-10-04T21:36:03.274Z,101760.44
2022-10-04T21:38:31.302Z,101762.75
2022-10-04T21:41:00.462Z,101759.97
2022-10-04T21:43:28.496Z,101757.22
2022-10-04T21:45:56.538Z,101752.94
2022-10-04T21:48:24.612Z,101754.94
2022-10-04T21:50:53.585Z,101745.63
2022-10-04T21:53:21.755Z,101742.75
2022-10-04T21:55:49.796Z,101740.28
2022-10-04T21:58:18.887Z,101733.09
2022-10-04T22:00:46.647Z,101741.84
2022-10-04T22:03:14.420Z,101739.09
2022-10-04T22:05:42.119Z,101738.59
2022-10-04T22:08:09.896Z,101732.31
2022-10-04T22:10:37.664Z,101731.28
2022-10-04T22:13:05.362Z,101731.56
2022-10-04T22:15:34.411Z,101728.53
2022-10-04T22:18:02.139Z,101723.47
2022-10-04T22:20:30.125Z,101717.50
2022-10-04T22:22:59.076Z,101711.72
2022-10-04T22:25:28.497Z,101710.22
2022-10-04T22:27:56.332Z,101702.69
2022-10-04T22:30:26.598Z,101699.19
2022-10-04T22:32:58.682Z,101701.19
2022-10-04T22:35:26.437Z,101696.63
2022-10-04T22:37:54.354Z,101683.81
2022-10-04T22:40:24.253Z,101696.19
2022-10-04T22:42:53.590Z,101683.69
2022-10-04T22:45:24.415Z,101695.16
2022-10-04T22:47:52.984Z,101688.13
2022-10-04T22:50:29.566Z,101679.41
2022-10-04T22:52:57.661Z,101687.38
2022-10-04T22:55:25.750Z,101692.56
2022-10-04T22:57:53.633Z,101678.06
2022-10-04T23:00:21.432Z,101678.06
2022-10-04T23:02:49.945Z,101684.31
2022-10-04T23:05:19.993Z,101674.72
2022-10-04T23:07:49.930Z,101666.47
2022-10-04T23:10:20.323Z,101669.72
2022-10-04T23:12:49.617Z,101680.22
2022-10-04T23:15:20.133Z,101680.22
2022-10-04T23:17:54.239Z,101681.47
2022-10-04T23:20:22.919Z,101666.97
2022-10-04T23:22:53.951Z,101673.69
2022-10-04T23:25:22.516Z,101675.69
2022-10-04T23:27:50.311Z,101680.88
2022-10-04T23:30:20.322Z,101684.13
2022-10-04T23:32:50.053Z,101682.88
2022-10-04T23:35:20.738Z,101692.66
2022-10-04T23:37:49.127Z,101670.84
2022-10-04T23:40:21.282Z,101671.59
2022-10-04T23:42:51.678Z,101677.09
2022-10-04T23:45:22.237Z,101682.78
2022-10-04T23:47:52.855Z,101677.84
2022-10-04T23:50:27.814Z,101662.13
2022-10-04T23:53:02.369Z,101660.13
2022-10-04T23:55:35.943Z,101665.13
2022-10-04T23:58:12.062Z,101672.63
